sensor_id;sensor_type;location;lat;lon;timestamp;P1;durP1;ratioP1;P2;durP2;ratioP2
9280;SDS011;4679;47.966;7.958;2023-05-07T06:17:57;2.63;;;2.07;;
9280;SDS011;4679;47.966;7.958;2023-05-07T06:19:59;1.80;;;1.70;;
9280;SDS011;4679;47.966;7.958;2023-05-07T06:22:01;2.23;;;2.00;;
9280;SDS011;4679;47.966;7.958;2023-05-07T06:24:02;1.77;;;1.67;;
9280;SDS011;4679;47.966;7.958;2023-05-07T06:26:04;2.00;;;1.80;;
9280;SDS011;4679;47.966;7.958;2023-05-07T06:28:06;3.73;;;2.03;;
9280;SDS011;4679;47.966;7.958;2023-05-07T06:30:08;1.93;;;1.70;;
9280;SDS011;4679;47.966;7.958;2023-05-07T06:32:11;1.70;;;1.60;;
9280;SDS011;4679;47.966;7.958;2023-05-07T06:34:15;3.53;;;2.13;;
9280;SDS011;4679;47.966;7.958;2023-05-07T06:36:16;2.03;;;1.60;;
9280;SDS011;4679;47.966;7.958;2023-05-07T06:38:18;2.00;;;1.60;;
9280;SDS011;4679;47.966;7.958;2023-05-07T06:40:20;2.83;;;1.33;;
9280;SDS011;4679;47.966;7.958;2023-05-07T06:42:21;2.07;;;1.77;;
9280;SDS011;4679;47.966;7.958;2023-05-07T06:44:23;2.20;;;1.80;;
9280;SDS011;4679;47.966;7.958;2023-05-07T06:46:25;2.30;;;1.47;;
9280;SDS011;4679;47.966;7.958;2023-05-07T06:48:26;3.47;;;1.40;;
9280;SDS011;4679;47.966;7.958;2023-05-07T06:50:29;2.17;;;1.40;;
9280;SDS011;4679;47.966;7.958;2023-05-07T06:52:31;2.73;;;1.60;;
9280;SDS011;4679;47.966;7.958;2023-05-07T06:54:33;1.67;;;1.37;;
9280;SDS011;4679;47.966;7.958;2023-05-07T06:56:34;2.17;;;1.40;;
9280;SDS011;4679;47.966;7.958;2023-05-07T06:58:36;1.40;;;1.30;;
9280;SDS011;4679;47.966;7.958;2023-05-07T07:00:38;1.53;;;1.37;;
9280;SDS011;4679;47.966;7.958;2023-05-07T07:02:40;2.30;;;1.57;;
9280;SDS011;4679;47.966;7.958;2023-05-07T07:04:42;1.30;;;1.30;;
9280;SDS011;4679;47.966;7.958;2023-05-07T07:06:46;1.50;;;1.40;;
9280;SDS011;4679;47.966;7.958;2023-05-07T07:08:48;2.73;;;1.20;;
9280;SDS011;4679;47.966;7.958;2023-05-07T07:10:50;1.50;;;1.20;;
9280;SDS011;4679;47.966;7.958;2023-05-07T07:12:51;1.67;;;1.20;;
9280;SDS011;4679;47.966;7.958;2023-05-07T07:14:54;1.70;;;1.40;;
9280;SDS011;4679;47.966;7.958;2023-05-07T07:16:55;3.27;;;1.33;;
9280;SDS011;4679;47.966;7.958;2023-05-07T07:18:57;1.43;;;1.33;;
9280;SDS011;4679;47.966;7.958;2023-05-07T07:20:59;1.77;;;1.30;;
9280;SDS011;4679;47.966;7.958;2023-05-07T07:23:02;1.43;;;1.33;;
9280;SDS011;4679;47.966;7.958;2023-05-07T07:25:04;2.53;;;1.20;;
9280;SDS011;4679;47.966;7.958;2023-05-07T07:27:06;1.80;;;1.20;;
9280;SDS011;4679;47.966;7.958;2023-05-07T07:29:08;1.57;;;1.47;;
9280;SDS011;4679;47.966;7.958;2023-05-07T07:31:10;1.23;;;1.20;;
9280;SDS011;4679;47.966;7.958;2023-05-07T07:33:12;1.53;;;1.20;;
9280;SDS011;4679;47.966;7.958;2023-05-07T07:35:14;1.27;;;1.23;;
9280;SDS011;4679;47.966;7.958;2023-05-07T07:37:16;1.30;;;1.20;;
9280;SDS011;4679;47.966;7.958;2023-05-07T07:39:19;2.57;;;1.27;;
9280;SDS011;4679;47.966;7.958;2023-05-07T07:41:21;1.80;;;1.40;;
9280;SDS011;4679;47.966;7.958;2023-05-07T07:43:22;1.50;;;1.40;;
9280;SDS011;4679;47.966;7.958;2023-05-07T07:45:24;1.60;;;1.40;;
9280;SDS011;4679;47.966;7.958;2023-05-07T07:47:26;1.40;;;1.30;;
9280;SDS011;4679;47.966;7.958;2023-05-07T07:49:28;1.63;;;1.30;;
9280;SDS011;4679;47.966;7.958;2023-05-07T07:51:29;1.43;;;1.33;;
9280;SDS011;4679;47.966;7.958;2023-05-07T07:53:31;1.33;;;1.23;;
9280;SDS011;4679;47.966;7.958;2023-05-07T07:55:38;3.97;;;1.27;;
9280;SDS011;4679;47.966;7.958;2023-05-07T07:57:40;1.50;;;1.40;;
9280;SDS011;4679;47.966;7.958;2023-05-07T07:59:42;3.23;;;1.43;;
9280;SDS011;4679;47.966;7.958;2023-05-07T08:01:44;1.60;;;1.50;;
9280;SDS011;4679;47.966;7.958;2023-05-07T08:03:46;3.40;;;1.23;;
9280;SDS011;4679;47.966;7.958;2023-05-07T08:05:47;1.40;;;1.30;;
9280;SDS011;4679;47.966;7.958;2023-05-07T08:07:51;1.33;;;1.20;;
9280;SDS011;4679;47.966;7.958;2023-05-07T08:09:53;2.10;;;1.17;;
9280;SDS011;4679;47.966;7.958;2023-05-07T08:11:56;1.20;;;1.03;;
9280;SDS011;4679;47.966;7.958;2023-05-07T08:13:58;1.80;;;1.30;;
9280;SDS011;4679;47.966;7.958;2023-05-07T08:15:59;4.63;;;1.17;;
9280;SDS011;4679;47.966;7.958;2023-05-07T08:18:01;2.50;;;1.13;;
9280;SDS011;4679;47.966;7.958;2023-05-07T08:20:03;1.40;;;1.30;;
9280;SDS011;4679;47.966;7.958;2023-05-07T08:22:06;2.00;;;1.30;;
9280;SDS011;4679;47.966;7.958;2023-05-07T08:24:08;1.67;;;1.20;;
9280;SDS011;4679;47.966;7.958;2023-05-07T08:26:10;1.73;;;1.43;;
9280;SDS011;4679;47.966;7.958;2023-05-07T08:28:14;1.20;;;1.10;;
9280;SDS011;4679;47.966;7.958;2023-05-07T08:30:15;2.50;;;1.20;;
9280;SDS011;4679;47.966;7.958;2023-05-07T08:32:17;1.63;;;1.30;;
9280;SDS011;4679;47.966;7.958;2023-05-07T08:34:19;1.80;;;1.30;;
9280;SDS011;4679;47.966;7.958;2023-05-07T08:36:23;1.10;;;1.10;;
9280;SDS011;4679;47.966;7.958;2023-05-07T08:38:25;1.47;;;1.37;;
9280;SDS011;4679;47.966;7.958;2023-05-07T08:40:27;1.70;;;1.07;;
9280;SDS011;4679;47.966;7.958;2023-05-07T08:42:30;1.37;;;1.10;;
9280;SDS011;4679;47.966;7.958;2023-05-07T08:44:35;1.23;;;1.20;;
9280;SDS011;4679;47.966;7.958;2023-05-07T08:46:36;2.00;;;1.27;;
9280;SDS011;4679;47.966;7.958;2023-05-07T08:48:39;1.60;;;1.30;;
9280;SDS011;4679;47.966;7.958;2023-05-07T08:50:40;1.43;;;1.30;;
9280;SDS011;4679;47.966;7.958;2023-05-07T08:52:42;2.43;;;1.17;;
9280;SDS011;4679;47.966;7.958;2023-05-07T08:54:44;1.63;;;1.13;;
9280;SDS011;4679;47.966;7.958;2023-05-07T08:56:46;1.53;;;1.17;;
9280;SDS011;4679;47.966;7.958;2023-05-07T08:58:48;1.33;;;1.23;;
9280;SDS011;4679;47.966;7.958;2023-05-07T09:00:51;1.50;;;1.40;;
9280;SDS011;4679;47.966;7.958;2023-05-07T09:02:55;2.33;;;1.40;;
9280;SDS011;4679;47.966;7.958;2023-05-07T09:04:57;1.83;;;1.43;;
9280;SDS011;4679;47.966;7.958;2023-05-07T09:06:58;2.17;;;1.33;;
9280;SDS011;4679;47.966;7.958;2023-05-07T09:09:05;3.57;;;1.60;;
9280;SDS011;4679;47.966;7.958;2023-05-07T09:11:07;4.77;;;1.80;;
9280;SDS011;4679;47.966;7.958;2023-05-07T09:13:10;2.13;;;1.50;;
9280;SDS011;4679;47.966;7.958;2023-05-07T09:15:14;1.60;;;1.40;;
9280;SDS011;4679;47.966;7.958;2023-05-07T09:17:17;1.60;;;1.50;;
9280;SDS011;4679;47.966;7.958;2023-05-07T09:19:21;2.10;;;1.60;;
9280;SDS011;4679;47.966;7.958;2023-05-07T09:21:24;1.97;;;1.87;;
9280;SDS011;4679;47.966;7.958;2023-05-07T09:23:26;1.47;;;1.20;;
9280;SDS011;4679;47.966;7.958;2023-05-07T09:25:27;1.50;;;1.40;;
9280;SDS011;4679;47.966;7.958;2023-05-07T09:27:30;3.00;;;1.50;;
9280;SDS011;4679;47.966;7.958;2023-05-07T09:29:32;2.33;;;1.60;;
9280;SDS011;4679;47.966;7.958;2023-05-07T09:31:36;2.67;;;1.40;;
9280;SDS011;4679;47.966;7.958;2023-05-07T09:33:39;1.57;;;1.47;;
9280;SDS011;4679;47.966;7.958;2023-05-07T09:35:41;2.43;;;1.70;;
9280;SDS011;4679;47.966;7.958;2023-05-07T09:37:43;2.60;;;1.77;;
9280;SDS011;4679;47.966;7.958;2023-05-07T09:39:45;1.63;;;1.53;;
9280;SDS011;4679;47.966;7.958;2023-05-07T09:41:48;1.37;;;1.30;;
9280;SDS011;4679;47.966;7.958;2023-05-07T09:43:53;1.50;;;1.40;;
9280;SDS011;4679;47.966;7.958;2023-05-07T09:45:55;1.87;;;1.77;;
9280;SDS011;4679;47.966;7.958;2023-05-07T09:47:59;3.60;;;1.48;;
9280;SDS011;4679;47.966;7.958;2023-05-07T09:50:04;2.37;;;1.73;;
9280;SDS011;4679;47.966;7.958;2023-05-07T09:52:09;2.40;;;2.20;;
9280;SDS011;4679;47.966;7.958;2023-05-07T09:54:12;3.03;;;2.37;;
9280;SDS011;4679;47.966;7.958;2023-05-07T09:56:14;2.33;;;1.80;;
9280;SDS011;4679;47.966;7.958;2023-05-07T09:58:16;2.17;;;1.90;;
9280;SDS011;4679;47.966;7.958;2023-05-07T10:00:20;2.57;;;1.80;;
9280;SDS011;4679;47.966;7.958;2023-05-07T10:02:23;2.07;;;1.70;;
9280;SDS011;4679;47.966;7.958;2023-05-07T10:04:30;3.80;;;1.77;;
9280;SDS011;4679;47.966;7.958;2023-05-07T10:06:34;1.80;;;1.70;;
9280;SDS011;4679;47.966;7.958;2023-05-07T10:08:36;1.43;;;1.33;;
9280;SDS011;4679;47.966;7.958;2023-05-07T10:10:38;1.43;;;1.33;;
9280;SDS011;4679;47.966;7.958;2023-05-07T10:12:41;1.67;;;1.53;;
9280;SDS011;4679;47.966;7.958;2023-05-07T10:14:43;1.40;;;1.30;;
9280;SDS011;4679;47.966;7.958;2023-05-07T10:16:47;1.40;;;1.40;;
9280;SDS011;4679;47.966;7.958;2023-05-07T10:18:49;1.23;;;0.57;;
9280;SDS011;4679;47.966;7.958;2023-05-07T10:20:52;2.20;;;0.80;;
9280;SDS011;4679;47.966;7.958;2023-05-07T10:22:57;4.77;;;0.73;;
9280;SDS011;4679;47.966;7.958;2023-05-07T10:24:59;2.93;;;1.20;;
9280;SDS011;4679;47.966;7.958;2023-05-07T10:27:07;5.10;;;1.27;;
9280;SDS011;4679;47.966;7.958;2023-05-07T10:29:12;5.07;;;2.10;;
9280;SDS011;4679;47.966;7.958;2023-05-07T10:31:24;1.53;;;0.80;;
9280;SDS011;4679;47.966;7.958;2023-05-07T10:33:39;3.70;;;1.10;;
9280;SDS011;4679;47.966;7.958;2023-05-07T10:35:42;3.80;;;1.30;;
9280;SDS011;4679;47.966;7.958;2023-05-07T10:37:45;2.03;;;0.90;;
9280;SDS011;4679;47.966;7.958;2023-05-07T10:39:49;3.63;;;1.10;;
9280;SDS011;4679;47.966;7.958;2023-05-07T10:41:51;7.60;;;1.30;;
9280;SDS011;4679;47.966;7.958;2023-05-07T10:43:52;4.50;;;1.60;;
9280;SDS011;4679;47.966;7.958;2023-05-07T10:46:10;4.63;;;1.70;;
9280;SDS011;4679;47.966;7.958;2023-05-07T10:48:13;3.50;;;1.87;;
9280;SDS011;4679;47.966;7.958;2023-05-07T10:50:21;3.37;;;2.00;;
9280;SDS011;4679;47.966;7.958;2023-05-07T10:52:24;3.00;;;1.87;;
9280;SDS011;4679;47.966;7.958;2023-05-07T10:54:26;4.80;;;2.03;;
9280;SDS011;4679;47.966;7.958;2023-05-07T10:56:29;1.83;;;1.73;;
9280;SDS011;4679;47.966;7.958;2023-05-07T10:58:31;1.90;;;1.80;;
9280;SDS011;4679;47.966;7.958;2023-05-07T11:00:41;4.03;;;1.60;;
9280;SDS011;4679;47.966;7.958;2023-05-07T11:05:18;2.20;;;2.00;;
9280;SDS011;4679;47.966;7.958;2023-05-07T11:07:27;2.37;;;2.17;;
9280;SDS011;4679;47.966;7.958;2023-05-07T11:12:12;3.23;;;3.03;;
9280;SDS011;4679;47.966;7.958;2023-05-07T11:14:14;3.90;;;3.70;;
9280;SDS011;4679;47.966;7.958;2023-05-07T11:16:44;4.50;;;3.83;;
9280;SDS011;4679;47.966;7.958;2023-05-07T11:18:47;5.23;;;4.73;;
9280;SDS011;4679;47.966;7.958;2023-05-07T11:20:51;3.60;;;3.40;;
9280;SDS011;4679;47.966;7.958;2023-05-07T11:22:57;3.87;;;3.57;;
9280;SDS011;4679;47.966;7.958;2023-05-07T11:24:59;4.73;;;4.40;;
9280;SDS011;4679;47.966;7.958;2023-05-07T11:27:01;4.17;;;3.67;;
9280;SDS011;4679;47.966;7.958;2023-05-07T11:29:04;3.23;;;2.97;;
9280;SDS011;4679;47.966;7.958;2023-05-07T11:31:12;3.40;;;3.10;;
9280;SDS011;4679;47.966;7.958;2023-05-07T11:33:13;3.40;;;3.20;;
9280;SDS011;4679;47.966;7.958;2023-05-07T11:35:18;3.47;;;3.27;;
9280;SDS011;4679;47.966;7.958;2023-05-07T11:37:25;4.00;;;3.63;;
9280;SDS011;4679;47.966;7.958;2023-05-07T11:39:30;4.30;;;3.90;;
9280;SDS011;4679;47.966;7.958;2023-05-07T11:41:33;5.20;;;4.27;;
9280;SDS011;4679;47.966;7.958;2023-05-07T11:43:37;6.83;;;3.93;;
9280;SDS011;4679;47.966;7.958;2023-05-07T11:45:41;3.30;;;3.10;;
9280;SDS011;4679;47.966;7.958;2023-05-07T11:47:43;2.80;;;2.60;;
9280;SDS011;4679;47.966;7.958;2023-05-07T11:49:45;3.57;;;2.93;;
9280;SDS011;4679;47.966;7.958;2023-05-07T11:51:48;3.33;;;3.00;;
9280;SDS011;4679;47.966;7.958;2023-05-07T11:53:49;3.03;;;2.83;;
9280;SDS011;4679;47.966;7.958;2023-05-07T11:55:51;2.47;;;2.27;;
9280;SDS011;4679;47.966;7.958;2023-05-07T11:57:53;3.33;;;3.03;;
9280;SDS011;4679;47.966;7.958;2023-05-07T11:59:55;4.33;;;2.40;;
9280;SDS011;4679;47.966;7.958;2023-05-07T12:01:59;2.70;;;2.50;;
9280;SDS011;4679;47.966;7.958;2023-05-07T12:04:02;3.47;;;2.17;;
9280;SDS011;4679;47.966;7.958;2023-05-07T12:06:05;2.17;;;2.00;;
9280;SDS011;4679;47.966;7.958;2023-05-07T12:08:08;1.93;;;1.83;;
9280;SDS011;4679;47.966;7.958;2023-05-07T12:10:10;2.40;;;1.90;;
9280;SDS011;4679;47.966;7.958;2023-05-07T12:12:13;2.73;;;2.23;;
9280;SDS011;4679;47.966;7.958;2023-05-07T12:14:18;2.67;;;2.33;;
9280;SDS011;4679;47.966;7.958;2023-05-07T12:16:20;3.67;;;2.10;;
9280;SDS011;4679;47.966;7.958;2023-05-07T12:18:24;2.60;;;2.40;;
9280;SDS011;4679;47.966;7.958;2023-05-07T12:20:26;2.43;;;2.13;;
9280;SDS011;4679;47.966;7.958;2023-05-07T12:22:28;4.63;;;2.17;;
9280;SDS011;4679;47.966;7.958;2023-05-07T12:24:41;2.40;;;2.20;;
9280;SDS011;4679;47.966;7.958;2023-05-07T12:26:44;2.10;;;1.97;;
9280;SDS011;4679;47.966;7.958;2023-05-07T12:28:48;2.40;;;2.20;;
9280;SDS011;4679;47.966;7.958;2023-05-07T12:30:50;2.17;;;2.07;;
9280;SDS011;4679;47.966;7.958;2023-05-07T12:32:52;2.60;;;2.10;;
9280;SDS011;4679;47.966;7.958;2023-05-07T12:34:56;2.40;;;1.90;;
9280;SDS011;4679;47.966;7.958;2023-05-07T12:37:01;2.57;;;1.90;;
9280;SDS011;4679;47.966;7.958;2023-05-07T12:39:04;2.67;;;2.07;;
9280;SDS011;4679;47.966;7.958;2023-05-07T12:41:06;2.10;;;2.00;;
9280;SDS011;4679;47.966;7.958;2023-05-07T12:43:15;2.17;;;2.07;;
9280;SDS011;4679;47.966;7.958;2023-05-07T12:45:17;1.93;;;1.83;;
9280;SDS011;4679;47.966;7.958;2023-05-07T12:47:19;1.70;;;1.60;;
9280;SDS011;4679;47.966;7.958;2023-05-07T12:49:22;2.00;;;1.80;;
9280;SDS011;4679;47.966;7.958;2023-05-07T12:51:26;3.03;;;2.73;;
9280;SDS011;4679;47.966;7.958;2023-05-07T12:53:30;2.03;;;1.90;;
9280;SDS011;4679;47.966;7.958;2023-05-07T12:55:32;2.33;;;2.23;;
9280;SDS011;4679;47.966;7.958;2023-05-07T12:57:42;2.17;;;1.97;;
9280;SDS011;4679;47.966;7.958;2023-05-07T12:59:45;1.87;;;1.77;;
9280;SDS011;4679;47.966;7.958;2023-05-07T13:01:47;1.90;;;1.80;;
9280;SDS011;4679;47.966;7.958;2023-05-07T13:03:49;2.40;;;2.20;;
9280;SDS011;4679;47.966;7.958;2023-05-07T13:05:51;3.37;;;2.10;;
9280;SDS011;4679;47.966;7.958;2023-05-07T13:07:56;2.60;;;2.40;;
9280;SDS011;4679;47.966;7.958;2023-05-07T13:09:58;2.77;;;2.53;;
9280;SDS011;4679;47.966;7.958;2023-05-07T13:12:00;3.00;;;2.10;;
9280;SDS011;4679;47.966;7.958;2023-05-07T13:14:02;2.57;;;2.37;;
9280;SDS011;4679;47.966;7.958;2023-05-07T13:16:05;2.63;;;2.37;;
9280;SDS011;4679;47.966;7.958;2023-05-07T13:18:09;2.80;;;2.60;;
9280;SDS011;4679;47.966;7.958;2023-05-07T13:20:12;3.53;;;3.20;;
9280;SDS011;4679;47.966;7.958;2023-05-07T13:22:14;2.80;;;2.60;;
9280;SDS011;4679;47.966;7.958;2023-05-07T13:24:17;3.90;;;2.33;;
9280;SDS011;4679;47.966;7.958;2023-05-07T13:26:20;4.87;;;2.60;;
9280;SDS011;4679;47.966;7.958;2023-05-07T13:28:23;3.40;;;3.20;;
9280;SDS011;4679;47.966;7.958;2023-05-07T13:30:25;3.23;;;2.67;;
9280;SDS011;4679;47.966;7.958;2023-05-07T13:32:27;2.80;;;2.67;;
9280;SDS011;4679;47.966;7.958;2023-05-07T13:34:29;2.63;;;2.43;;
9280;SDS011;4679;47.966;7.958;2023-05-07T13:36:31;3.30;;;3.10;;
9280;SDS011;4679;47.966;7.958;2023-05-07T13:38:35;3.70;;;2.43;;
9280;SDS011;4679;47.966;7.958;2023-05-07T13:40:39;3.37;;;3.17;;
9280;SDS011;4679;47.966;7.958;2023-05-07T13:42:41;3.10;;;2.90;;
9280;SDS011;4679;47.966;7.958;2023-05-07T13:44:43;3.50;;;3.20;;
9280;SDS011;4679;47.966;7.958;2023-05-07T13:46:46;3.33;;;3.10;;
9280;SDS011;4679;47.966;7.958;2023-05-07T13:48:48;3.53;;;3.17;;
9280;SDS011;4679;47.966;7.958;2023-05-07T13:50:51;3.50;;;3.13;;
9280;SDS011;4679;47.966;7.958;2023-05-07T13:52:52;3.70;;;3.50;;
9280;SDS011;4679;47.966;7.958;2023-05-07T13:54:54;4.40;;;3.80;;
9280;SDS011;4679;47.966;7.958;2023-05-07T13:56:58;4.30;;;3.87;;
9280;SDS011;4679;47.966;7.958;2023-05-07T13:59:00;4.20;;;3.80;;
9280;SDS011;4679;47.966;7.958;2023-05-07T14:01:02;4.47;;;4.10;;
9280;SDS011;4679;47.966;7.958;2023-05-07T14:03:04;3.70;;;3.27;;
9280;SDS011;4679;47.966;7.958;2023-05-07T14:05:06;2.97;;;1.87;;
9280;SDS011;4679;47.966;7.958;2023-05-07T14:07:09;2.20;;;2.10;;
9280;SDS011;4679;47.966;7.958;2023-05-07T14:09:11;1.70;;;1.60;;
9280;SDS011;4679;47.966;7.958;2023-05-07T14:11:13;1.80;;;1.70;;
9280;SDS011;4679;47.966;7.958;2023-05-07T14:13:16;1.40;;;1.30;;
9280;SDS011;4679;47.966;7.958;2023-05-07T14:15:18;1.30;;;1.20;;
9280;SDS011;4679;47.966;7.958;2023-05-07T14:17:20;1.33;;;1.10;;
9280;SDS011;4679;47.966;7.958;2023-05-07T14:19:23;0.90;;;0.90;;
9280;SDS011;4679;47.966;7.958;2023-05-07T14:21:24;0.90;;;0.90;;
9280;SDS011;4679;47.966;7.958;2023-05-07T14:23:26;2.20;;;1.17;;
9280;SDS011;4679;47.966;7.958;2023-05-07T14:25:28;1.43;;;1.33;;
9280;SDS011;4679;47.966;7.958;2023-05-07T14:27:29;1.73;;;1.40;;
9280;SDS011;4679;47.966;7.958;2023-05-07T14:29:32;4.10;;;1.60;;
9280;SDS011;4679;47.966;7.958;2023-05-07T14:31:35;1.50;;;1.40;;
9280;SDS011;4679;47.966;7.958;2023-05-07T14:33:37;1.40;;;1.30;;
9280;SDS011;4679;47.966;7.958;2023-05-07T14:35:38;1.70;;;1.60;;
9280;SDS011;4679;47.966;7.958;2023-05-07T14:37:40;2.83;;;2.07;;
9280;SDS011;4679;47.966;7.958;2023-05-07T14:39:42;2.27;;;1.87;;
9280;SDS011;4679;47.966;7.958;2023-05-07T14:41:43;2.40;;;2.20;;
9280;SDS011;4679;47.966;7.958;2023-05-07T14:43:45;7.23;;;2.23;;
9280;SDS011;4679;47.966;7.958;2023-05-07T14:45:51;2.40;;;2.30;;
9280;SDS011;4679;47.966;7.958;2023-05-07T14:47:53;2.60;;;2.30;;
9280;SDS011;4679;47.966;7.958;2023-05-07T14:49:55;2.90;;;2.70;;
9280;SDS011;4679;47.966;7.958;2023-05-07T14:51:57;2.47;;;2.10;;
9280;SDS011;4679;47.966;7.958;2023-05-07T14:54:00;3.10;;;2.63;;
9280;SDS011;4679;47.966;7.958;2023-05-07T14:56:02;2.50;;;2.27;;
9280;SDS011;4679;47.966;7.958;2023-05-07T14:58:04;5.30;;;2.67;;
9280;SDS011;4679;47.966;7.958;2023-05-07T15:00:06;4.87;;;3.10;;
9280;SDS011;4679;47.966;7.958;2023-05-07T15:02:11;2.67;;;2.47;;
9280;SDS011;4679;47.966;7.958;2023-05-07T15:04:13;2.73;;;1.93;;
9280;SDS011;4679;47.966;7.958;2023-05-07T15:06:15;2.30;;;2.10;;
9280;SDS011;4679;47.966;7.958;2023-05-07T15:08:16;2.33;;;2.10;;
9280;SDS011;4679;47.966;7.958;2023-05-07T15:10:18;3.60;;;2.60;;
9280;SDS011;4679;47.966;7.958;2023-05-07T15:12:20;2.90;;;2.10;;
9280;SDS011;4679;47.966;7.958;2023-05-07T15:14:21;3.10;;;2.10;;
9280;SDS011;4679;47.966;7.958;2023-05-07T15:16:23;2.30;;;1.87;;
9280;SDS011;4679;47.966;7.958;2023-05-07T15:18:26;2.17;;;1.70;;
9280;SDS011;4679;47.966;7.958;2023-05-07T15:20:28;3.50;;;2.27;;
9280;SDS011;4679;47.966;7.958;2023-05-07T15:22:29;3.03;;;2.20;;
9280;SDS011;4679;47.966;7.958;2023-05-07T15:24:31;1.87;;;1.77;;
9280;SDS011;4679;47.966;7.958;2023-05-07T15:26:33;2.10;;;2.00;;
9280;SDS011;4679;47.966;7.958;2023-05-07T15:28:35;2.67;;;1.80;;
9280;SDS011;4679;47.966;7.958;2023-05-07T15:30:38;3.20;;;2.07;;
9280;SDS011;4679;47.966;7.958;2023-05-07T15:32:39;2.70;;;1.70;;
9280;SDS011;4679;47.966;7.958;2023-05-07T15:34:43;2.93;;;1.80;;
9280;SDS011;4679;47.966;7.958;2023-05-07T15:36:44;2.17;;;1.83;;
9280;SDS011;4679;47.966;7.958;2023-05-07T15:38:46;1.70;;;1.60;;
9280;SDS011;4679;47.966;7.958;2023-05-07T15:40:48;3.17;;;1.90;;
9280;SDS011;4679;47.966;7.958;2023-05-07T15:42:50;2.40;;;1.60;;
9280;SDS011;4679;47.966;7.958;2023-05-07T15:44:55;2.27;;;1.30;;
9280;SDS011;4679;47.966;7.958;2023-05-07T15:46:58;2.77;;;1.40;;
9280;SDS011;4679;47.966;7.958;2023-05-07T15:49:01;3.20;;;1.43;;
9280;SDS011;4679;47.966;7.958;2023-05-07T15:51:05;2.63;;;1.10;;
9280;SDS011;4679;47.966;7.958;2023-05-07T15:53:08;0.90;;;0.90;;
9280;SDS011;4679;47.966;7.958;2023-05-07T15:55:09;1.10;;;0.93;;
9280;SDS011;4679;47.966;7.958;2023-05-07T15:57:11;0.90;;;0.90;;
9280;SDS011;4679;47.966;7.958;2023-05-07T15:59:13;1.43;;;0.83;;
9280;SDS011;4679;47.966;7.958;2023-05-07T16:01:15;1.10;;;1.10;;
9280;SDS011;4679;47.966;7.958;2023-05-07T16:03:17;1.00;;;0.80;;
9280;SDS011;4679;47.966;7.958;2023-05-07T16:05:18;0.73;;;0.70;;
9280;SDS011;4679;47.966;7.958;2023-05-07T16:07:22;1.43;;;0.70;;
9280;SDS011;4679;47.966;7.958;2023-05-07T16:09:24;0.63;;;0.60;;
9280;SDS011;4679;47.966;7.958;2023-05-07T16:11:26;0.80;;;0.80;;
9280;SDS011;4679;47.966;7.958;2023-05-07T16:13:29;2.17;;;1.00;;
9280;SDS011;4679;47.966;7.958;2023-05-07T16:15:31;0.80;;;0.80;;
9280;SDS011;4679;47.966;7.958;2023-05-07T16:17:32;0.77;;;0.73;;
9280;SDS011;4679;47.966;7.958;2023-05-07T16:19:34;1.37;;;0.63;;
9280;SDS011;4679;47.966;7.958;2023-05-07T16:21:36;2.73;;;0.70;;
9280;SDS011;4679;47.966;7.958;2023-05-07T16:23:39;0.67;;;0.67;;
9280;SDS011;4679;47.966;7.958;2023-05-07T16:25:41;1.23;;;0.70;;
9280;SDS011;4679;47.966;7.958;2023-05-07T16:27:42;0.60;;;0.60;;
9280;SDS011;4679;47.966;7.958;2023-05-07T16:29:44;1.23;;;0.70;;
9280;SDS011;4679;47.966;7.958;2023-05-07T16:31:46;0.60;;;0.60;;
9280;SDS011;4679;47.966;7.958;2023-05-07T16:33:48;0.80;;;0.80;;
9280;SDS011;4679;47.966;7.958;2023-05-07T16:35:50;1.63;;;0.80;;
9280;SDS011;4679;47.966;7.958;2023-05-07T16:37:52;0.80;;;0.80;;
9280;SDS011;4679;47.966;7.958;2023-05-07T16:39:55;0.60;;;0.60;;
9280;SDS011;4679;47.966;7.958;2023-05-07T16:41:58;0.87;;;0.87;;
9280;SDS011;4679;47.966;7.958;2023-05-07T16:44:00;1.77;;;1.00;;
9280;SDS011;4679;47.966;7.958;2023-05-07T16:46:03;0.80;;;0.80;;
9280;SDS011;4679;47.966;7.958;2023-05-07T16:48:04;2.00;;;0.83;;
9280;SDS011;4679;47.966;7.958;2023-05-07T16:50:07;1.20;;;1.00;;
9280;SDS011;4679;47.966;7.958;2023-05-07T16:52:09;0.80;;;0.80;;
9280;SDS011;4679;47.966;7.958;2023-05-07T16:54:11;2.63;;;0.77;;
9280;SDS011;4679;47.966;7.958;2023-05-07T16:56:14;0.70;;;0.70;;
9280;SDS011;4679;47.966;7.958;2023-05-07T16:58:16;2.00;;;0.70;;
9280;SDS011;4679;47.966;7.958;2023-05-07T17:00:17;0.67;;;0.67;;
9280;SDS011;4679;47.966;7.958;2023-05-07T17:02:19;0.70;;;0.70;;
9280;SDS011;4679;47.966;7.958;2023-05-07T17:04:21;0.70;;;0.70;;
9280;SDS011;4679;47.966;7.958;2023-05-07T17:06:23;1.30;;;0.97;;
9280;SDS011;4679;47.966;7.958;2023-05-07T17:08:24;2.00;;;1.00;;
9280;SDS011;4679;47.966;7.958;2023-05-07T17:10:26;1.20;;;1.10;;
9280;SDS011;4679;47.966;7.958;2023-05-07T17:12:29;1.17;;;1.00;;
9280;SDS011;4679;47.966;7.958;2023-05-07T17:14:32;1.53;;;0.93;;
9280;SDS011;4679;47.966;7.958;2023-05-07T17:16:33;2.03;;;0.90;;
9280;SDS011;4679;47.966;7.958;2023-05-07T17:18:35;1.10;;;0.90;;
9280;SDS011;4679;47.966;7.958;2023-05-07T17:20:37;1.83;;;0.90;;
9280;SDS011;4679;47.966;7.958;2023-05-07T17:22:39;1.47;;;0.93;;
9280;SDS011;4679;47.966;7.958;2023-05-07T17:24:41;1.50;;;0.90;;
9280;SDS011;4679;47.966;7.958;2023-05-07T17:26:42;1.00;;;1.00;;
9280;SDS011;4679;47.966;7.958;2023-05-07T17:28:45;0.97;;;0.90;;
9280;SDS011;4679;47.966;7.958;2023-05-07T17:30:47;0.90;;;0.90;;
9280;SDS011;4679;47.966;7.958;2023-05-07T17:32:49;2.03;;;1.07;;
9280;SDS011;4679;47.966;7.958;2023-05-07T17:34:51;2.93;;;0.90;;
9280;SDS011;4679;47.966;7.958;2023-05-07T17:36:53;1.50;;;1.07;;
9280;SDS011;4679;47.966;7.958;2023-05-07T17:38:55;0.90;;;0.90;;
9280;SDS011;4679;47.966;7.958;2023-05-07T17:40:57;2.80;;;1.40;;
9280;SDS011;4679;47.966;7.958;2023-05-07T17:42:59;1.60;;;1.17;;
9280;SDS011;4679;47.966;7.958;2023-05-07T17:45:03;1.17;;;1.07;;
9280;SDS011;4679;47.966;7.958;2023-05-07T17:47:05;1.93;;;0.90;;
9280;SDS011;4679;47.966;7.958;2023-05-07T17:49:07;1.10;;;1.10;;
9280;SDS011;4679;47.966;7.958;2023-05-07T17:51:09;3.00;;;1.10;;
9280;SDS011;4679;47.966;7.958;2023-05-07T17:53:11;1.40;;;1.30;;
9280;SDS011;4679;47.966;7.958;2023-05-07T17:55:13;2.63;;;1.10;;
9280;SDS011;4679;47.966;7.958;2023-05-07T17:57:15;2.60;;;1.13;;
9280;SDS011;4679;47.966;7.958;2023-05-07T17:59:17;1.60;;;1.00;;
9280;SDS011;4679;47.966;7.958;2023-05-07T18:01:20;2.23;;;0.80;;
9280;SDS011;4679;47.966;7.958;2023-05-07T18:03:21;1.23;;;1.10;;
9280;SDS011;4679;47.966;7.958;2023-05-07T18:05:24;1.13;;;1.00;;
9280;SDS011;4679;47.966;7.958;2023-05-07T18:07:26;2.13;;;0.90;;
9280;SDS011;4679;47.966;7.958;2023-05-07T18:09:28;2.20;;;1.20;;
9280;SDS011;4679;47.966;7.958;2023-05-07T18:11:29;2.10;;;0.90;;
9280;SDS011;4679;47.966;7.958;2023-05-07T18:13:32;1.27;;;1.13;;
9280;SDS011;4679;47.966;7.958;2023-05-07T18:15:34;2.50;;;1.07;;
9280;SDS011;4679;47.966;7.958;2023-05-07T18:17:37;2.03;;;1.07;;
9280;SDS011;4679;47.966;7.958;2023-05-07T18:19:39;3.17;;;1.20;;
9280;SDS011;4679;47.966;7.958;2023-05-07T18:21:40;2.53;;;1.20;;
9280;SDS011;4679;47.966;7.958;2023-05-07T18:23:42;4.97;;;1.30;;
9280;SDS011;4679;47.966;7.958;2023-05-07T18:25:45;2.20;;;1.10;;
9280;SDS011;4679;47.966;7.958;2023-05-07T18:27:47;1.53;;;1.20;;
9280;SDS011;4679;47.966;7.958;2023-05-07T18:29:49;1.07;;;1.00;;
9280;SDS011;4679;47.966;7.958;2023-05-07T18:31:50;1.90;;;1.20;;
9280;SDS011;4679;47.966;7.958;2023-05-07T18:33:54;2.90;;;1.47;;
9280;SDS011;4679;47.966;7.958;2023-05-07T18:35:55;2.03;;;1.10;;
9280;SDS011;4679;47.966;7.958;2023-05-07T18:37:57;1.13;;;1.03;;
9280;SDS011;4679;47.966;7.958;2023-05-07T18:39:59;1.33;;;1.20;;
9280;SDS011;4679;47.966;7.958;2023-05-07T18:42:03;1.13;;;1.10;;
9280;SDS011;4679;47.966;7.958;2023-05-07T18:44:07;1.90;;;1.30;;
9280;SDS011;4679;47.966;7.958;2023-05-07T18:46:09;3.37;;;1.40;;
9280;SDS011;4679;47.966;7.958;2023-05-07T18:48:11;2.00;;;1.17;;
9280;SDS011;4679;47.966;7.958;2023-05-07T18:50:14;2.43;;;1.10;;
9280;SDS011;4679;47.966;7.958;2023-05-07T18:52:16;2.47;;;1.00;;
9280;SDS011;4679;47.966;7.958;2023-05-07T18:54:20;2.30;;;1.20;;
9280;SDS011;4679;47.966;7.958;2023-05-07T18:56:21;3.87;;;1.20;;
9280;SDS011;4679;47.966;7.958;2023-05-07T18:58:23;2.53;;;1.10;;
9280;SDS011;4679;47.966;7.958;2023-05-07T19:00:25;3.17;;;1.13;;
9280;SDS011;4679;47.966;7.958;2023-05-07T19:02:27;2.27;;;1.20;;
9280;SDS011;4679;47.966;7.958;2023-05-07T19:04:28;1.63;;;1.40;;